Time;durP1;ratioP1;P1;durP2;ratioP2;P2;SDS_P1;SDS_P2;PMS_P1;PMS_P2;Temp;Humidity;BMP_temperature;BMP_pressure;BME280_temperature;BME280_humidity;BME280_pressure;Samples;Min_cycle;Max_cycle;Signal;HPM_P1;HPM_P2
2022/12/07 00:01:12;;;;;;;;;;;;;;;-144.99;100.00;52586.69;5011509;28;19930;-73
2022/12/07 00:03:39;;;;;;;;;;;;;;;-144.99;100.00;52607.09;5019550;28;19991;-78
2022/12/07 00:06:08;;;;;;;;;;;;;;;-144.99;100.00;52670.28;5026265;28;20007;-73
2022/12/07 00:08:35;;;;;;;;;;;;;;;-144.99;100.00;52629.50;5003035;28;20328;-73
2022/12/07 00:11:03;;;;;;;;;;;;;;;-144.99;100.00;52615.25;5006905;28;19929;-76
2022/12/07 00:13:29;;;;;;;;;;;;;;;-144.99;100.00;52625.44;5003984;28;19967;-74
2022/12/07 00:15:56;;;;;;;;;;;;;;;-144.99;100.00;52627.47;4662225;28;10000434;-71
2022/12/07 00:18:22;;;;;;;;;;;;;;;-144.99;100.00;52615.25;5009183;28;19929;-71
2022/12/07 00:20:49;;;;;;;;;;;;;;;-144.99;100.00;52633.59;4994271;28;20437;-71
2022/12/07 00:23:17;;;;;;;;;;;;;;;-144.99;100.00;52617.28;5009789;28;19940;-73
2022/12/07 00:25:43;;;;;;;;;;;;;;;-144.99;100.00;52590.78;5005825;28;20002;-71
2022/12/07 00:28:10;;;;;;;;;;;;;;;-144.99;100.00;52615.25;5008750;28;19943;-72
2022/12/07 00:30:37;;;;;;;;;;;;;;;-144.99;100.00;52631.53;5010993;28;19974;-71
2022/12/07 00:33:03;;;;;;;;;;;;;;;-144.99;100.00;52609.13;5002518;28;19948;-72
2022/12/07 00:35:30;;;;;;;;;;;;;;;-144.99;100.00;52631.53;5007453;28;20421;-72
2022/12/07 00:37:56;;;;;;;;;;;;;;;-144.99;100.00;52627.47;5000816;28;19944;-73
2022/12/07 00:40:24;;;;;;;;;;;;;;;-144.99;100.00;52643.78;5007872;28;20009;-72
2022/12/07 00:42:51;;;;;;;;;;;;;;;-144.99;100.00;52676.38;5022335;28;19913;-73
2022/12/07 00:45:17;;;;;;;;;;;;;;;-144.99;100.00;52594.84;5019828;28;19944;-72
2022/12/07 00:47:44;;;;;;;;;;;;;;;-144.99;100.00;52639.69;5008937;28;19963;-72
2022/12/07 00:50:10;;;;;;;;;;;;;;;-144.99;100.00;52645.81;5004960;28;20020;-72
2022/12/07 00:52:37;;;;;;;;;;;;;;;-144.99;100.00;52605.03;5008559;28;19942;-71
2022/12/07 00:55:03;;;;;;;;;;;;;;;-144.99;100.00;52635.63;5005876;28;20007;-71
2022/12/07 00:57:32;;;;;;;;;;;;;;;-144.99;100.00;52635.63;5003991;28;20084;-71
2022/12/07 01:00:00;;;;;;;;;;;;;;;-144.99;100.00;52603.00;5009068;28;20438;-71
2022/12/07 01:02:26;;;;;;;;;;;;;;;-144.99;100.00;52641.72;5004740;28;19951;-75
2022/12/07 01:04:53;;;;;;;;;;;;;;;-144.99;100.00;52645.81;5012920;28;19939;-71
2022/12/07 01:07:19;;;;;;;;;;;;;;;-144.99;100.00;52645.81;5005170;28;19940;-72
2022/12/07 01:09:46;;;;;;;;;;;;;;;-144.99;100.00;52598.94;5002962;28;20467;-72
2022/12/07 01:12:12;;;;;;;;;;;;;;;-144.99;100.00;52619.31;5008097;28;20517;-72
2022/12/07 01:14:42;;;;;;;;;;;;;;;-144.99;100.00;52647.84;5009494;28;19994;-74
2022/12/07 01:17:08;;;;;;;;;;;;;;;-144.99;100.00;52619.31;5003997;28;19946;-73
2022/12/07 01:19:35;;;;;;;;;;;;;;;-144.99;100.00;52611.16;5013894;28;20491;-75
2022/12/07 01:22:01;;;;;;;;;;;;;;;-144.99;100.00;52627.47;5031064;28;19997;-74
2022/12/07 01:24:28;;;;;;;;;;;;;;;-144.99;100.00;52619.31;5024177;28;19967;-73
2022/12/07 01:26:54;;;;;;;;;;;;;;;-144.99;100.00;52627.47;5007395;28;19942;-74
2022/12/07 01:29:21;;;;;;;;;;;;;;;-144.99;100.00;52639.69;5004426;28;20524;-73
2022/12/07 01:31:50;;;;;;;;;;;;;;;-144.99;100.00;52651.94;5009992;28;19940;-74
2022/12/07 01:34:17;;;;;;;;;;;;;;;-144.99;100.00;52627.47;5006008;28;19995;-73
2022/12/07 01:36:43;;;;;;;;;;;;;;;-144.99;100.00;52603.00;5000146;28;19937;-74
2022/12/07 01:39:10;;;;;;;;;;;;;;;-144.99;100.00;52598.94;5005556;28;19953;-74
2022/12/07 01:41:39;;;;;;;;;;;;;;;-144.99;100.00;52578.53;5002095;28;20660;-74
2022/12/07 01:44:10;;;;;;;;;;;;;;;-144.99;100.00;52643.78;5013017;28;19945;-74
2022/12/07 01:46:37;;;;;;;;;;;;;;;-144.99;100.00;52627.47;5006896;28;20368;-73
2022/12/07 01:49:06;;;;;;;;;;;;;;;-144.99;100.00;52582.63;5002169;28;19992;-73
2022/12/07 01:51:32;;;;;;;;;;;;;;;-144.99;100.00;52668.22;5001888;28;19940;-74
2022/12/07 01:53:59;;;;;;;;;;;;;;;-144.99;100.00;52637.66;5011734;28;19970;-73
2022/12/07 01:56:27;;;;;;;;;;;;;;;-144.99;100.00;52643.78;5009686;28;20270;-73
2022/12/07 01:58:55;;;;;;;;;;;;;;;-144.99;100.00;52615.25;5014681;28;20200;-74
2022/12/07 02:01:22;;;;;;;;;;;;;;;-144.99;100.00;52639.69;5030096;28;19953;-74
2022/12/07 02:03:49;;;;;;;;;;;;;;;-144.99;100.00;52643.78;5002120;28;19929;-72
2022/12/07 02:06:20;;;;;;;;;;;;;;;-144.99;100.00;52639.69;5006558;28;20233;-72
2022/12/07 02:08:47;;;;;;;;;;;;;;;-144.99;100.00;52631.53;5008890;28;20025;-71
2022/12/07 02:11:14;;;;;;;;;;;;;;;-144.99;100.00;52611.16;5004693;28;19964;-71
2022/12/07 02:13:41;;;;;;;;;;;;;;;-144.99;100.00;52656.00;5009424;28;19940;-70
2022/12/07 02:16:15;;;;;;;;;;;;;;;-144.99;100.00;52607.09;5002336;28;20028;-71
2022/12/07 02:18:47;;;;;;;;;;;;;;;-144.99;100.00;52623.38;5004370;28;19940;-70
2022/12/07 02:21:17;;;;;;;;;;;;;;;-144.99;100.00;52631.53;5004597;28;20015;-71
2022/12/07 02:24:04;;;;;;;;;;;;;;;-144.99;100.00;52633.59;5005626;28;19961;-72
2022/12/07 02:26:51;;;;;;;;;;;;;;;-144.99;100.00;52603.00;5000208;28;19942;-71
2022/12/07 02:29:22;;;;;;;;;;;;;;;-144.99;100.00;52656.00;5002728;28;19986;-71
2022/12/07 02:31:51;;;;;;;;;;;;;;;-144.99;100.00;52611.16;5007871;28;19981;-71
2022/12/07 02:34:22;;;;;;;;;;;;;;;-144.99;100.00;52639.69;5003105;28;20022;-71
2022/12/07 02:36:53;;;;;;;;;;;;;;;-144.99;100.00;52619.31;4998740;28;20123;-71
2022/12/07 02:39:27;;;;;;;;;;;;;;;-144.99;100.00;52598.94;5024744;28;21377;-74
2022/12/07 02:41:55;;;;;;;;;;;;;;;-144.99;100.00;52582.63;5023309;28;19959;-71
2022/12/07 02:44:25;;;;;;;;;;;;;;;-144.99;100.00;52619.31;5002340;28;20469;-71
2022/12/07 02:46:55;;;;;;;;;;;;;;;-144.99;100.00;52656.00;5004909;28;20027;-71
2022/12/07 02:49:22;;;;;;;;;;;;;;;-144.99;100.00;52645.81;4999976;28;20017;-70
2022/12/07 02:51:49;;;;;;;;;;;;;;;-144.99;100.00;52639.69;5009276;28;20008;-70
2022/12/07 02:54:16;;;;;;;;;;;;;;;-144.99;100.00;52615.25;4999247;28;19964;-72
2022/12/07 02:56:46;;;;;;;;;;;;;;;-144.99;100.00;52656.00;5005099;28;20288;-72
2022/12/07 02:59:18;;;;;;;;;;;;;;;-144.99;100.00;52666.19;5006863;28;19959;-71
2022/12/07 03:01:51;;;;;;;;;;;;;;;-144.99;100.00;52651.94;5000982;28;19926;-71
2022/12/07 03:04:24;;;;;;;;;;;;;;;-144.99;100.00;52603.00;4998154;28;19985;-71
2022/12/07 03:06:54;;;;;;;;;;;;;;;-144.99;100.00;52621.34;5004498;28;19940;-73
2022/12/07 03:09:22;;;;;;;;;;;;;;;-144.99;100.00;52647.84;5004504;28;19963;-72
2022/12/07 03:11:51;;;;;;;;;;;;;;;-144.99;100.00;52639.69;5003700;28;19952;-70
2022/12/07 03:14:20;;;;;;;;;;;;;;;-144.99;100.00;52637.66;5005336;28;19941;-70
2022/12/07 03:16:50;;;;;;;;;;;;;;;-144.99;100.00;52647.84;5005918;28;19964;-69
2022/12/07 03:19:18;;;;;;;;;;;;;;;-144.99;100.00;52631.53;5031888;28;19940;-71
2022/12/07 03:21:47;;;;;;;;;;;;;;;-144.99;100.00;52688.63;5003693;28;19925;-70
2022/12/07 03:24:15;;;;;;;;;;;;;;;-144.99;100.00;52611.16;5007270;28;20391;-69
2022/12/07 03:26:44;;;;;;;;;;;;;;;-144.99;100.00;52623.38;5001176;28;19975;-69
2022/12/07 03:29:13;;;;;;;;;;;;;;;-144.99;100.00;52590.78;5003796;28;19946;-69
2022/12/07 03:31:41;;;;;;;;;;;;;;;-144.99;100.00;52619.31;5002752;28;20002;-71
2022/12/07 03:34:12;;;;;;;;;;;;;;;-144.99;100.00;52649.88;4994985;28;19969;-72
2022/12/07 03:36:41;;;;;;;;;;;;;;;-144.99;100.00;52631.53;5007173;28;19938;-73
2022/12/07 03:39:13;;;;;;;;;;;;;;;-144.99;100.00;52635.63;5002774;28;20048;-73
2022/12/07 03:41:40;;;;;;;;;;;;;;;-144.99;100.00;52609.13;5003642;28;19965;-72
2022/12/07 03:44:07;;;;;;;;;;;;;;;-144.99;100.00;52647.84;5010222;28;20370;-73
2022/12/07 03:46:37;;;;;;;;;;;;;;;-144.99;100.00;52627.47;4997270;28;19990;-73
2022/12/07 03:49:09;;;;;;;;;;;;;;;-144.99;100.00;52647.84;5002056;28;19930;-74
2022/12/07 03:51:39;;;;;;;;;;;;;;;-144.99;100.00;52647.84;5009556;28;20031;-73
2022/12/07 03:54:11;;;;;;;;;;;;;;;-144.99;100.00;52676.38;5011930;28;20321;-74
2022/12/07 03:56:38;;;;;;;;;;;;;;;-144.99;100.00;52623.38;5006688;28;20185;-76
2022/12/07 03:59:05;;;;;;;;;;;;;;;-144.99;100.00;52631.53;5032851;28;19937;-73
2022/12/07 04:01:32;;;;;;;;;;;;;;;-144.99;100.00;52639.69;5005645;28;19985;-72
2022/12/07 04:03:59;;;;;;;;;;;;;;;-144.99;100.00;52619.31;4994719;28;19986;-70
2022/12/07 04:06:25;;;;;;;;;;;;;;;-144.99;100.00;52643.78;5004081;28;20027;-71
2022/12/07 04:08:53;;;;;;;;;;;;;;;-144.99;100.00;52598.94;5000905;28;19974;-70
2022/12/07 04:11:19;;;;;;;;;;;;;;;-144.99;100.00;52615.25;5005110;28;19997;-71
2022/12/07 04:16:30;;;;;;;;;;;;;;;-144.99;100.00;52623.38;4997647;28;19955;-70
2022/12/07 04:18:56;;;;;;;;;;;;;;;-144.99;100.00;52611.16;5003070;28;19940;-72
2022/12/07 04:21:23;;;;;;;;;;;;;;;-144.99;100.00;52627.47;5002262;28;19968;-69
2022/12/07 04:23:49;;;;;;;;;;;;;;;-144.99;100.00;52647.84;5009658;28;20021;-70
2022/12/07 04:26:17;;;;;;;;;;;;;;;-144.99;100.00;52619.31;5004855;28;19944;-70
2022/12/07 04:28:44;;;;;;;;;;;;;;;-144.99;100.00;52639.69;5003580;28;19998;-72
2022/12/07 04:31:10;;;;;;;;;;;;;;;-144.99;100.00;52635.63;5011589;28;19959;-70
2022/12/07 04:33:37;;;;;;;;;;;;;;;-144.99;100.00;52619.31;5001538;28;19947;-71
2022/12/07 04:36:03;;;;;;;;;;;;;;;-144.99;100.00;52635.63;5009576;28;20357;-70
2022/12/07 04:38:30;;;;;;;;;;;;;;;-144.99;100.00;52621.34;5011215;28;19938;-70
2022/12/07 04:40:56;;;;;;;;;;;;;;;-144.99;100.00;52615.25;5009252;28;20014;-69
2022/12/07 04:43:24;;;;;;;;;;;;;;;-144.99;100.00;52643.78;5004291;28;19997;-70
2022/12/07 04:45:51;;;;;;;;;;;;;;;-144.99;100.00;52619.31;5007202;28;20001;-72
2022/12/07 04:48:18;;;;;;;;;;;;;;;-144.99;100.00;52623.38;5007188;28;19961;-70
2022/12/07 04:50:44;;;;;;;;;;;;;;;-144.99;100.00;52647.84;5008696;28;19987;-71
2022/12/07 04:53:11;;;;;;;;;;;;;;;-144.99;100.00;52651.94;5013526;28;20059;-71
2022/12/07 04:55:37;;;;;;;;;;;;;;;-144.99;100.00;52643.78;5011343;28;19944;-71
2022/12/07 04:58:03;;;;;;;;;;;;;;;-144.99;100.00;52656.00;5005336;28;20215;-71
2022/12/07 05:00:31;;;;;;;;;;;;;;;-144.99;100.00;52635.63;5007564;28;20025;-73
2022/12/07 05:02:58;;;;;;;;;;;;;;;-144.99;100.00;52670.28;5000977;28;19962;-70
2022/12/07 05:05:25;;;;;;;;;;;;;;;-144.99;100.00;52643.78;5006655;28;19936;-70
2022/12/07 05:07:51;;;;;;;;;;;;;;;-144.99;100.00;52647.84;5006903;28;20561;-68
2022/12/07 05:10:18;;;;;;;;;;;;;;;-144.99;100.00;52637.66;5007046;28;20018;-70
2022/12/07 05:12:45;;;;;;;;;;;;;;;-144.99;100.00;52662.13;5012298;23;19993;-75
2022/12/07 05:15:11;;;;;;;;;;;;;;;-144.99;100.00;52656.00;5030306;28;19962;-76
2022/12/07 05:17:39;;;;;;;;;;;;;;;-144.99;100.00;52668.22;5017258;28;19955;-75
2022/12/07 05:20:06;;;;;;;;;;;;;;;-144.99;100.00;52631.53;5029373;28;19968;-77
2022/12/07 05:22:33;;;;;;;;;;;;;;;-144.99;100.00;52647.84;5018824;28;19960;-76
2022/12/07 05:24:59;;;;;;;;;;;;;;;-144.99;100.00;52651.94;5021991;28;19949;-76
2022/12/07 05:27:26;;;;;;;;;;;;;;;-144.99;100.00;52627.47;5020967;28;19938;-76
2022/12/07 05:29:52;;;;;;;;;;;;;;;-144.99;100.00;52607.09;5026794;28;20013;-76
2022/12/07 05:32:19;;;;;;;;;;;;;;;-144.99;100.00;52611.16;5025627;28;19925;-79
2022/12/07 05:34:47;;;;;;;;;;;;;;;-144.99;100.00;52643.78;5031215;28;19941;-78
2022/12/07 05:37:13;;;;;;;;;;;;;;;-144.99;100.00;52623.38;5018942;28;19950;-77
2022/12/07 05:39:42;;;;;;;;;;;;;;;-144.99;100.00;52615.25;5029140;28;19936;-78
2022/12/07 05:42:15;;;;;;;;;;;;;;;-144.99;100.00;52647.84;5027576;28;20010;-78
2022/12/07 05:44:42;;;;;;;;;;;;;;;-144.99;100.00;52637.66;5030083;28;19938;-78
2022/12/07 05:47:08;;;;;;;;;;;;;;;-144.99;100.00;52633.59;5027470;28;19926;-78
2022/12/07 05:49:35;;;;;;;;;;;;;;;-144.99;100.00;52651.94;5023482;28;19962;-77
2022/12/07 05:52:02;;;;;;;;;;;;;;;-144.99;100.00;52656.00;5029791;28;19940;-78
2022/12/07 05:54:29;;;;;;;;;;;;;;;-144.99;100.00;52631.53;5024370;28;20590;-79
2022/12/07 05:56:56;;;;;;;;;;;;;;;-144.99;100.00;52631.53;5024057;28;19963;-78
2022/12/07 05:59:24;;;;;;;;;;;;;;;-144.99;100.00;52643.78;5026667;28;19939;-79
2022/12/07 06:01:51;;;;;;;;;;;;;;;-144.99;100.00;52631.53;5022213;28;20016;-78
2022/12/07 06:04:18;;;;;;;;;;;;;;;-144.99;100.00;52660.09;5019642;28;19966;-78
2022/12/07 06:06:45;;;;;;;;;;;;;;;-144.99;100.00;52660.09;5026089;28;19936;-79
2022/12/07 06:09:13;;;;;;;;;;;;;;;-144.99;100.00;52631.53;5029339;28;19942;-75
2022/12/07 06:14:24;;;;;;;;;;;;;;;-144.99;100.00;52656.00;5022960;28;19981;-75
2022/12/07 06:16:51;;;;;;;;;;;;;;;-144.99;100.00;52631.53;5016136;28;19942;-74
2022/12/07 06:19:17;;;;;;;;;;;;;;;-144.99;100.00;52603.00;5020930;28;19974;-75
2022/12/07 06:21:44;;;;;;;;;;;;;;;-144.99;100.00;52623.38;5013440;28;20334;-77
2022/12/07 06:24:11;;;;;;;;;;;;;;;-144.99;100.00;52649.88;5014588;28;19960;-75
2022/12/07 06:26:40;;;;;;;;;;;;;;;-144.99;100.00;52631.53;5002033;28;19940;-76
2022/12/07 06:29:07;;;;;;;;;;;;;;;-144.99;100.00;52627.47;5004769;28;20365;-77
2022/12/07 06:31:33;;;;;;;;;;;;;;;-144.99;100.00;52647.84;5022053;28;19936;-77
2022/12/07 06:34:00;;;;;;;;;;;;;;;-144.99;100.00;52611.16;5021473;28;19945;-78
2022/12/07 06:36:26;;;;;;;;;;;;;;;-144.99;100.00;52668.22;5021848;28;19924;-78
2022/12/07 06:38:53;;;;;;;;;;;;;;;-144.99;100.00;52647.84;5020465;28;19966;-77
2022/12/07 06:41:19;;;;;;;;;;;;;;;-144.99;100.00;52615.25;5006323;28;19966;-76
2022/12/07 06:43:47;;;;;;;;;;;;;;;-144.99;100.00;52619.31;5002037;28;19991;-75
2022/12/07 06:46:14;;;;;;;;;;;;;;;-144.99;100.00;52653.97;4996948;28;20391;-74
2022/12/07 06:48:40;;;;;;;;;;;;;;;-144.99;100.00;52607.09;5005160;28;19945;-75
2022/12/07 06:51:07;;;;;;;;;;;;;;;-144.99;100.00;52639.69;5002550;28;19986;-75
2022/12/07 06:53:33;;;;;;;;;;;;;;;-144.99;100.00;52645.81;5012551;28;20034;-75
2022/12/07 06:56:00;;;;;;;;;;;;;;;-144.99;100.00;52623.38;5004263;28;20010;-76
2022/12/07 06:58:26;;;;;;;;;;;;;;;-144.99;100.00;52635.63;5005993;28;20419;-76
2022/12/07 07:00:55;;;;;;;;;;;;;;;-144.99;100.00;52627.47;5006736;28;20459;-77
2022/12/07 07:03:21;;;;;;;;;;;;;;;-144.99;100.00;52645.81;5010195;28;19990;-77
2022/12/07 07:05:48;;;;;;;;;;;;;;;-144.99;100.00;52623.38;5005796;28;19986;-76
2022/12/07 07:08:14;;;;;;;;;;;;;;;-144.99;100.00;52615.25;5009983;28;19972;-75
2022/12/07 07:10:41;;;;;;;;;;;;;;;-144.99;100.00;52635.63;5007328;28;19938;-76
2022/12/07 07:13:08;;;;;;;;;;;;;;;-144.99;100.00;52688.63;5008529;28;19998;-76
2022/12/07 07:15:35;;;;;;;;;;;;;;;-144.99;100.00;52643.78;5000043;28;19944;-76
2022/12/07 07:18:03;;;;;;;;;;;;;;;-144.99;100.00;52631.53;5007274;28;19984;-76
2022/12/07 07:20:29;;;;;;;;;;;;;;;-144.99;100.00;52627.47;5007851;28;19938;-77
2022/12/07 07:22:56;;;;;;;;;;;;;;;-144.99;100.00;52625.44;5002111;28;19965;-77
2022/12/07 07:25:23;;;;;;;;;;;;;;;-144.99;100.00;52639.69;5005778;28;19929;-77
2022/12/07 07:27:49;;;;;;;;;;;;;;;-144.99;100.00;52643.78;5003446;28;20292;-76
2022/12/07 07:30:16;;;;;;;;;;;;;;;-144.99;100.00;52680.47;5007892;28;20008;-78
2022/12/07 07:32:42;;;;;;;;;;;;;;;-144.99;100.00;52656.00;5012712;28;20464;-74
2022/12/07 07:35:10;;;;;;;;;;;;;;;-144.99;100.00;52639.69;5011085;28;19942;-76
2022/12/07 07:37:37;;;;;;;;;;;;;;;-144.99;100.00;52639.69;4996044;28;19930;-75
2022/12/07 07:40:03;;;;;;;;;;;;;;;-144.99;100.00;52639.69;5002627;28;19996;-75
2022/12/07 07:42:30;;;;;;;;;;;;;;;-144.99;100.00;52639.69;5008344;28;19957;-78
2022/12/07 07:44:56;;;;;;;;;;;;;;;-144.99;100.00;52635.63;5004398;28;19972;-76
2022/12/07 07:47:23;;;;;;;;;;;;;;;-144.99;100.00;52625.44;5001231;28;19929;-75
2022/12/07 07:49:49;;;;;;;;;;;;;;;-144.99;100.00;52684.53;4996808;28;19933;-75
2022/12/07 07:52:17;;;;;;;;;;;;;;;-144.99;100.00;52660.09;5010679;28;19943;-75
2022/12/07 07:54:44;;;;;;;;;;;;;;;-144.99;100.00;52611.16;5015203;28;20006;-75
2022/12/07 07:57:10;;;;;;;;;;;;;;;-144.99;100.00;52623.38;5009307;28;19940;-76
2022/12/07 07:59:37;;;;;;;;;;;;;;;-144.99;100.00;52631.53;4316838;28;10000711;-76
2022/12/07 08:02:03;;;;;;;;;;;;;;;-144.99;100.00;52668.22;5011058;28;19957;-76
2022/12/07 08:04:30;;;;;;;;;;;;;;;-144.99;100.00;52615.25;5013253;28;20080;-76
2022/12/07 08:06:57;;;;;;;;;;;;;;;-144.99;100.00;52656.00;5006839;28;20339;-75
2022/12/07 08:09:25;;;;;;;;;;;;;;;-144.99;100.00;52619.31;5005254;28;19972;-75
2022/12/07 08:11:51;;;;;;;;;;;;;;;-144.99;100.00;52656.00;5005344;28;19988;-75
2022/12/07 08:14:18;;;;;;;;;;;;;;;-144.99;100.00;52647.84;5009655;28;20018;-74
2022/12/07 08:16:44;;;;;;;;;;;;;;;-144.99;100.00;52676.38;5001309;28;20758;-75
2022/12/07 08:19:11;;;;;;;;;;;;;;;-144.99;100.00;52623.38;5003481;28;19940;-75
2022/12/07 08:21:38;;;;;;;;;;;;;;;-144.99;100.00;52627.47;5001997;28;20009;-75
2022/12/07 08:24:05;;;;;;;;;;;;;;;-144.99;100.00;52643.78;5012397;28;19994;-75
2022/12/07 08:26:33;;;;;;;;;;;;;;;-144.99;100.00;52615.25;5009444;28;20443;-76
2022/12/07 08:28:59;;;;;;;;;;;;;;;-144.99;100.00;52625.44;5005950;28;19997;-75
2022/12/07 08:31:27;;;;;;;;;;;;;;;-144.99;100.00;52645.81;5011951;28;19992;-76
2022/12/07 08:33:54;;;;;;;;;;;;;;;-144.99;100.00;52590.78;5002550;28;19953;-75
2022/12/07 08:36:21;;;;;;;;;;;;;;;-144.99;100.00;52629.50;5003547;28;19966;-75
2022/12/07 08:38:48;;;;;;;;;;;;;;;-144.99;100.00;52631.53;5000957;28;20036;-75
2022/12/07 08:41:14;;;;;;;;;;;;;;;-144.99;100.00;52623.38;4999400;28;19964;-76
2022/12/07 08:43:42;;;;;;;;;;;;;;;-144.99;100.00;52631.53;5008093;28;20442;-75
2022/12/07 08:46:10;;;;;;;;;;;;;;;-144.99;100.00;52623.38;5004543;28;19943;-75
2022/12/07 08:48:39;;;;;;;;;;;;;;;-144.99;100.00;52651.94;4999787;28;19962;-76
2022/12/07 08:51:06;;;;;;;;;;;;;;;-144.99;100.00;52619.31;5015682;28;20010;-75
2022/12/07 08:53:34;;;;;;;;;;;;;;;-144.99;100.00;52627.47;5026502;28;19957;-76
2022/12/07 08:56:00;;;;;;;;;;;;;;;-144.99;100.00;52580.59;5023595;28;20025;-75
2022/12/07 08:58:27;;;;;;;;;;;;;;;-144.99;100.00;52603.00;5027838;28;19947;-78
2022/12/07 09:00:55;;;;;;;;;;;;;;;-144.99;100.00;52631.53;5027216;28;19946;-76
2022/12/07 09:03:21;;;;;;;;;;;;;;;-144.99;100.00;52670.28;5009701;28;20000;-75
2022/12/07 09:05:48;;;;;;;;;;;;;;;-144.99;100.00;52615.25;5010197;28;19929;-76
2022/12/07 09:08:15;;;;;;;;;;;;;;;-144.99;100.00;52627.47;5007515;28;20476;-75
2022/12/07 09:10:41;;;;;;;;;;;;;;;-144.99;100.00;52615.25;5011943;28;20656;-75
2022/12/07 09:13:08;;;;;;;;;;;;;;;-144.99;100.00;52607.09;5019297;28;20374;-75
2022/12/07 09:15:34;;;;;;;;;;;;;;;-144.99;100.00;52586.69;5009338;28;19943;-74
2022/12/07 09:18:02;;;;;;;;;;;;;;;-144.99;100.00;52607.09;5018550;28;20027;-75
2022/12/07 09:20:29;;;;;;;;;;;;;;;-144.99;100.00;52623.38;5007110;28;19943;-75
2022/12/07 09:22:55;;;;;;;;;;;;;;;-144.99;100.00;52607.09;5014030;28;19967;-77
2022/12/07 09:25:22;;;;;;;;;;;;;;;-144.99;100.00;52625.44;5011938;28;19974;-75
2022/12/07 09:27:48;;;;;;;;;;;;;;;-144.99;100.00;52623.38;5008118;28;19994;-75
2022/12/07 09:30:15;;;;;;;;;;;;;;;-144.99;100.00;52639.69;5012720;28;19944;-76
2022/12/07 09:32:41;;;;;;;;;;;;;;;-144.99;100.00;52651.94;5013479;28;19955;-76
2022/12/07 09:35:09;;;;;;;;;;;;;;;-144.99;100.00;52605.03;5012986;28;19948;-76
2022/12/07 09:37:36;;;;;;;;;;;;;;;-144.99;100.00;52615.25;5009603;28;19972;-77
2022/12/07 09:40:03;;;;;;;;;;;;;;;-144.99;100.00;52660.09;5011819;28;19947;-76
2022/12/07 09:42:32;;;;;;;;;;;;;;;-144.99;100.00;52629.50;5012096;28;20065;-75
2022/12/07 09:44:59;;;;;;;;;;;;;;;-144.99;100.00;52611.16;5016971;28;19971;-77
2022/12/07 09:47:26;;;;;;;;;;;;;;;-144.99;100.00;52623.38;5013943;28;20639;-76
2022/12/07 09:49:55;;;;;;;;;;;;;;;-144.99;100.00;52643.78;4999312;28;20357;-75
2022/12/07 09:52:26;;;;;;;;;;;;;;;-144.99;100.00;52623.38;5008226;28;20382;-76
2022/12/07 09:54:53;;;;;;;;;;;;;;;-144.99;100.00;52603.00;5016246;28;20391;-77
2022/12/07 09:57:22;;;;;;;;;;;;;;;-144.99;100.00;52623.38;5019583;28;19939;-76
2022/12/07 09:59:48;;;;;;;;;;;;;;;-144.99;100.00;52603.00;5018065;28;19947;-77
2022/12/07 10:02:25;;;;;;;;;;;;;;;-144.99;100.00;52611.16;5019026;28;20484;-75
2022/12/07 10:04:52;;;;;;;;;;;;;;;-144.99;100.00;52635.63;5010092;28;19933;-77
2022/12/07 10:07:19;;;;;;;;;;;;;;;-144.99;100.00;52647.84;5004648;28;19953;-75
2022/12/07 10:09:46;;;;;;;;;;;;;;;-144.99;100.00;52631.53;5000088;28;20385;-76
2022/12/07 10:12:13;;;;;;;;;;;;;;;-144.99;100.00;52605.03;5015316;28;19961;-77
2022/12/07 10:14:40;;;;;;;;;;;;;;;-144.99;100.00;52641.72;5013311;28;19944;-76
2022/12/07 10:17:22;;;;;;;;;;;;;;;-144.99;100.00;52615.25;5010594;28;19951;-75
2022/12/07 10:19:48;;;;;;;;;;;;;;;-144.99;100.00;52631.53;5014614;28;19966;-76
2022/12/07 10:22:16;;;;;;;;;;;;;;;-144.99;100.00;52558.16;5016799;28;19929;-77
2022/12/07 10:24:43;;;;;;;;;;;;;;;-144.99;100.00;52598.94;5012531;28;20012;-76
2022/12/07 10:27:21;;;;;;;;;;;;;;;-144.99;100.00;52586.69;5009406;28;19942;-75
2022/12/07 10:29:49;;;;;;;;;;;;;;;-144.99;100.00;52615.25;4996026;28;20464;-77
2022/12/07 10:32:28;;;;;;;;;;;;;;;-144.99;100.00;52639.69;5010969;28;19929;-77
2022/12/07 10:35:18;;;;;;;;;;;;;;;-144.99;100.00;52598.94;5010412;28;20115;-76
2022/12/07 10:37:45;;;;;;;;;;;;;;;-144.99;100.00;52627.47;5003702;28;20449;-76
2022/12/07 10:40:24;;;;;;;;;;;;;;;-144.99;99.52;52590.78;5004784;28;19952;-77
2022/12/07 10:43:02;;;;;;;;;;;;;;;-144.99;98.63;52603.00;5005258;28;20460;-76
2022/12/07 10:45:29;;;;;;;;;;;;;;;-144.99;97.34;52578.53;5009313;28;19982;-76
2022/12/07 10:48:00;;;;;;;;;;;;;;;-144.99;96.11;52598.94;5008013;28;19947;-75
2022/12/07 10:50:51;;;;;;;;;;;;;;;-144.99;94.01;52619.31;4995350;28;19930;-75
2022/12/07 10:53:35;;;;;;;;;;;;;;;-144.99;91.63;52570.38;4991164;28;20004;-75
2022/12/07 10:56:15;;;;;;;;;;;;;;;-144.99;89.11;52570.38;5003292;28;19980;-77
2022/12/07 10:58:51;;;;;;;;;;;;;;;-144.99;87.72;52523.50;5016315;28;19943;-76
2022/12/07 11:01:24;;;;;;;;;;;;;;;-144.99;85.07;52556.13;5018592;28;20010;-75
2022/12/07 11:04:09;;;;;;;;;;;;;;;-144.99;84.98;52586.69;5018990;28;19925;-76
2022/12/07 11:06:38;;;;;;;;;;;;;;;-144.99;85.29;52578.53;5017022;28;19957;-76
2022/12/07 11:09:22;;;;;;;;;;;;;;;-144.99;85.15;52582.63;5014361;28;19975;-76
2022/12/07 11:11:54;;;;;;;;;;;;;;;-144.99;85.17;52550.00;5012370;28;19969;-75
2022/12/07 11:14:26;;;;;;;;;;;;;;;-144.99;85.59;52596.88;5021165;28;19992;-76
2022/12/07 11:16:56;;;;;;;;;;;;;;;-144.99;85.16;52566.31;5024823;28;19943;-76
2022/12/07 11:19:33;;;;;;;;;;;;;;;-144.99;84.91;52631.53;5027945;28;19940;-76
2022/12/07 11:22:03;;;;;;;;;;;;;;;-144.99;85.28;52570.38;5005887;28;19951;-75
2022/12/07 11:24:33;;;;;;;;;;;;;;;-144.99;84.65;52619.31;5011211;28;19961;-75
2022/12/07 11:27:10;;;;;;;;;;;;;;;-144.99;84.22;52598.94;5006476;28;20420;-77
2022/12/07 11:29:45;;;;;;;;;;;;;;;-144.99;83.59;52619.31;5002031;28;19940;-76
2022/12/07 11:32:17;;;;;;;;;;;;;;;-144.99;83.80;52584.66;5007533;28;20008;-76
2022/12/07 11:34:49;;;;;;;;;;;;;;;-144.99;83.76;52621.34;5003677;28;19939;-76
2022/12/07 11:37:19;;;;;;;;;;;;;;;-144.99;83.61;52586.69;5003357;28;20236;-75
2022/12/07 11:39:48;;;;;;;;;;;;;;;-144.99;82.88;52562.25;5006817;28;20219;-75
2022/12/07 11:42:16;;;;;;;;;;;;;;;-144.99;82.69;52615.25;5006692;28;20017;-76
2022/12/07 11:44:49;;;;;;;;;;;;;;;-144.99;82.21;52574.47;5010299;28;20447;-76
2022/12/07 11:47:18;;;;;;;;;;;;;;;-144.99;81.97;52611.16;5012003;28;19944;-76
2022/12/07 11:49:48;;;;;;;;;;;;;;;-144.99;80.78;52576.50;5008719;28;20026;-76
2022/12/07 11:52:20;;;;;;;;;;;;;;;-144.99;79.97;52562.25;4999615;28;19982;-75
2022/12/07 11:54:47;;;;;;;;;;;;;;;-144.99;78.63;52533.69;5007625;28;19940;-75
2022/12/07 11:57:16;;;;;;;;;;;;;;;-144.99;77.26;52554.09;5008385;28;19990;-76
2022/12/07 11:59:49;;;;;;;;;;;;;;;-144.99;75.62;52541.84;5012626;28;19926;-75
2022/12/07 12:02:16;;;;;;;;;;;;;;;-144.99;71.96;52494.97;5014338;28;19948;-77
2022/12/07 12:04:48;;;;;;;;;;;;;;;-144.99;69.48;52554.09;5021955;28;19954;-77
2022/12/07 12:07:17;;;;;;;;;;;;;;;-144.99;67.76;52545.94;5004490;28;19947;-76
2022/12/07 12:09:49;;;;;;;;;;;;;;;-144.99;66.25;52519.44;5010125;28;20028;-76
2022/12/07 12:12:33;;;;;;;;;;;;;;;-144.99;64.30;52537.78;5017778;28;19960;-76
2022/12/07 12:15:09;;;;;;;;;;;;;;;-144.99;63.48;52537.78;5020081;28;19936;-76
2022/12/07 12:17:45;;;;;;;;;;;;;;;-144.99;61.93;52499.06;5006965;28;20397;-75
2022/12/07 12:20:20;;;;;;;;;;;;;;;-144.99;61.22;52517.41;5006810;28;19984;-75
2022/12/07 12:22:49;;;;;;;;;;;;;;;-144.99;60.50;52464.41;5005396;28;19959;-76
2022/12/07 12:25:20;;;;;;;;;;;;;;;-144.99;58.69;52480.72;5006441;28;19959;-75
2022/12/07 12:27:48;;;;;;;;;;;;;;;-144.99;58.22;52488.84;5013187;28;19983;-75
2022/12/07 12:30:30;;;;;;;;;;;;;;;-144.99;56.26;52480.72;5002674;28;20035;-75